createdAt,value
2018-11-29T00:00:51.334Z,-0.08
2018-11-29T00:03:18.862Z,-0.06
2018-11-29T00:05:46.268Z,-0.05
2018-11-29T00:08:13.690Z,-0.03
2018-11-29T00:10:41.126Z,-0.04
2018-11-29T00:13:08.551Z,-0.06
2018-11-29T00:15:36.021Z,-0.07
2018-11-29T00:18:03.507Z,-0.07
2018-11-29T00:20:31.015Z,-0.07
2018-11-29T00:22:58.386Z,-0.11
2018-11-29T00:25:25.810Z,-0.13
2018-11-29T00:27:53.202Z,-0.16
2018-11-29T00:30:21.855Z,-0.15
2018-11-29T00:32:50.205Z,-0.17
2018-11-29T00:35:17.876Z,-0.17
2018-11-29T00:37:45.545Z,-0.16
2018-11-29T00:40:18.750Z,-0.19
2018-11-29T00:42:46.165Z,-0.21
2018-11-29T00:45:17.735Z,-0.22
2018-11-29T00:47:45.871Z,-0.24
2018-11-29T00:50:13.955Z,-0.27
2018-11-29T00:52:43.171Z,-0.30
2018-11-29T00:55:11.532Z,-0.25
2018-11-29T00:57:39.143Z,-0.25
2018-11-29T01:00:13.443Z,-0.20
2018-11-29T01:02:40.849Z,-0.21
2018-11-29T01:05:08.252Z,-0.22
2018-11-29T01:07:35.697Z,-0.24
2018-11-29T01:10:05.322Z,-0.24
2018-11-29T01:12:32.737Z,-0.21
2018-11-29T01:15:00.133Z,-0.13
2018-11-29T01:17:27.553Z,-0.15
2018-11-29T01:19:54.925Z,-0.12
2018-11-29T01:22:22.316Z,-0.06
2018-11-29T01:24:49.698Z,-0.03
2018-11-29T01:27:17.147Z,-0.07
2018-11-29T01:29:44.533Z,-0.07
2018-11-29T01:32:11.957Z,0.05
2018-11-29T01:34:39.345Z,0.04
2018-11-29T01:37:06.799Z,0.06
2018-11-29T01:39:34.193Z,0.12
2018-11-29T01:42:01.593Z,0.13
2018-11-29T01:44:29.016Z,0.19
2018-11-29T01:46:56.398Z,0.18
2018-11-29T01:49:23.859Z,0.21
2018-11-29T01:51:51.238Z,0.22
2018-11-29T01:54:18.654Z,0.26
2018-11-29T01:56:45.993Z,0.26
2018-11-29T01:59:13.420Z,0.29
2018-11-29T02:01:40.825Z,0.26
2018-11-29T02:04:08.314Z,0.27
2018-11-29T02:06:35.700Z,0.23
2018-11-29T02:09:03.562Z,0.19
2018-11-29T02:11:30.969Z,0.18
2018-11-29T02:13:58.348Z,0.19
2018-11-29T02:16:25.778Z,0.11
2018-11-29T02:18:53.153Z,0.10
2018-11-29T02:21:21.695Z,0.07
2018-11-29T02:23:48.214Z,0.05
2018-11-29T02:26:15.619Z,0.06
2018-11-29T02:28:46.329Z,0.10
2018-11-29T02:31:13.739Z,0.10
2018-11-29T02:33:41.187Z,0.13
2018-11-29T02:36:08.629Z,0.13
2018-11-29T02:38:36.315Z,0.14
2018-11-29T02:41:04.095Z,0.13
2018-11-29T02:43:31.475Z,0.12
2018-11-29T02:45:58.905Z,0.12
2018-11-29T02:48:26.305Z,0.13
2018-11-29T02:50:53.745Z,0.11
2018-11-29T02:53:21.082Z,0.10
2018-11-29T02:55:48.489Z,0.07
2018-11-29T02:58:15.928Z,0.00
2018-11-29T03:00:43.380Z,0.02
2018-11-29T03:03:10.813Z,0.02
2018-11-29T03:05:38.217Z,-0.03
2018-11-29T03:08:06.047Z,-0.05
2018-11-29T03:10:33.473Z,-0.03
2018-11-29T03:13:00.931Z,-0.02
2018-11-29T03:15:28.329Z,-0.02
2018-11-29T03:17:55.776Z,0.04
2018-11-29T03:20:23.158Z,0.03
2018-11-29T03:22:50.570Z,0.02
2018-11-29T03:25:17.981Z,0.01
2018-11-29T03:27:45.412Z,-0.06
2018-11-29T03:30:13.829Z,-0.08
2018-11-29T03:32:41.272Z,-0.06
2018-11-29T03:35:09.693Z,-0.05
2018-11-29T03:37:37.134Z,0.01
2018-11-29T03:40:07.997Z,-0.07
2018-11-29T03:42:35.367Z,-0.04
2018-11-29T03:45:02.831Z,-0.03
2018-11-29T03:47:30.239Z,0.02
2018-11-29T03:49:57.690Z,0.02
2018-11-29T03:52:25.085Z,0.08
2018-11-29T03:54:52.483Z,0.05
2018-11-29T03:57:19.852Z,0.08
2018-11-29T03:59:47.235Z,0.07
2018-11-29T04:02:14.590Z,0.07
2018-11-29T04:04:42.043Z,0.05
2018-11-29T04:07:09.466Z,0.02
2018-11-29T04:09:36.895Z,0.04
2018-11-29T04:12:04.391Z,0.03
2018-11-29T04:14:31.805Z,0.08
2018-11-29T04:17:00.664Z,0.06
2018-11-29T04:19:28.063Z,0.01
2018-11-29T04:21:55.488Z,0.08
2018-11-29T04:24:22.869Z,0.06
2018-11-29T04:26:50.276Z,0.05
2018-11-29T04:29:17.637Z,0.08
2018-11-29T04:31:45.088Z,0.07
2018-11-29T04:34:12.478Z,0.04
2018-11-29T04:36:39.864Z,0.00
2018-11-29T04:39:07.559Z,0.06
2018-11-29T04:41:35.033Z,0.09
2018-11-29T04:44:02.728Z,0.05
2018-11-29T04:46:40.768Z,0.12
2018-11-29T04:49:08.138Z,0.07
2018-11-29T04:51:35.613Z,0.06
2018-11-29T04:54:03.044Z,0.01
2018-11-29T04:56:30.456Z,-0.09
2018-11-29T04:58:57.878Z,0.06
2018-11-29T05:01:25.301Z,-0.03
2018-11-29T05:03:52.713Z,-0.01
2018-11-29T05:06:20.119Z,-0.06
2018-11-29T05:08:47.528Z,-0.08
2018-11-29T05:11:14.979Z,-0.18
2018-11-29T05:13:42.439Z,-0.22
2018-11-29T05:16:09.818Z,-0.30
2018-11-29T05:18:37.263Z,-0.29
2018-11-29T05:21:05.727Z,-0.26
2018-11-29T05:23:33.204Z,-0.21
2018-11-29T05:26:00.644Z,-0.21
2018-11-29T05:28:28.029Z,-0.13
2018-11-29T05:30:55.478Z,-0.05
2018-11-29T05:33:22.840Z,-0.08
2018-11-29T05:35:50.270Z,-0.10
2018-11-29T05:38:17.618Z,-0.09
2018-11-29T05:40:44.999Z,0.02
2018-11-29T05:43:12.358Z,0.08
2018-11-29T05:45:39.809Z,0.16
2018-11-29T05:48:07.256Z,0.28
2018-11-29T05:50:34.704Z,0.30
2018-11-29T05:53:02.084Z,0.31
2018-11-29T05:55:29.531Z,0.21
2018-11-29T05:57:56.919Z,0.18
2018-11-29T06:00:24.431Z,0.21
2018-11-29T06:02:51.818Z,0.22
2018-11-29T06:05:19.279Z,0.23
2018-11-29T06:07:46.684Z,0.30
2018-11-29T06:10:17.001Z,0.23
2018-11-29T06:12:44.686Z,0.25
2018-11-29T06:15:12.207Z,0.21
2018-11-29T06:17:39.907Z,0.16
2018-11-29T06:20:10.765Z,0.19
2018-11-29T06:22:38.144Z,0.05
2018-11-29T06:25:06.125Z,0.10
2018-11-29T06:27:33.614Z,0.07
2018-11-29T06:30:01.014Z,0.04
2018-11-29T06:32:28.496Z,0.07
2018-11-29T06:34:55.898Z,0.12
2018-11-29T06:37:23.352Z,0.03
2018-11-29T06:39:50.716Z,-0.10
2018-11-29T06:42:18.149Z,-0.05
2018-11-29T06:44:45.540Z,-0.10
2018-11-29T06:47:12.980Z,-0.14
2018-11-29T06:49:40.426Z,-0.16
2018-11-29T06:52:07.916Z,-0.25
2018-11-29T06:54:35.319Z,-0.25
2018-11-29T06:57:02.734Z,-0.07
2018-11-29T06:59:30.171Z,-0.07
2018-11-29T07:01:57.581Z,-0.20
2018-11-29T07:04:24.953Z,-0.27
2018-11-29T07:06:52.335Z,-0.21
2018-11-29T07:09:20.408Z,-0.23
2018-11-29T07:11:47.211Z,-0.22
2018-11-29T07:14:14.622Z,-0.24
2018-11-29T07:16:42.060Z,-0.25
2018-11-29T07:19:14.888Z,-0.27
2018-11-29T07:21:47.597Z,-0.27
2018-11-29T07:24:15.130Z,-0.24
2018-11-29T07:26:42.551Z,-0.19
2018-11-29T07:29:09.974Z,-0.24
2018-11-29T07:31:37.400Z,-0.15
2018-11-29T07:34:05.020Z,-0.16
2018-11-29T07:36:32.400Z,-0.18
2018-11-29T07:38:59.846Z,-0.09
2018-11-29T07:41:27.274Z,-0.09
2018-11-29T07:43:54.691Z,-0.09
2018-11-29T07:46:22.096Z,-0.22
2018-11-29T07:48:49.494Z,-0.25
2018-11-29T07:51:16.883Z,-0.15
2018-11-29T07:53:44.414Z,-0.17
2018-11-29T07:56:11.844Z,-0.10
2018-11-29T07:58:39.209Z,-0.10
2018-11-29T08:01:06.792Z,-0.08
2018-11-29T08:03:34.305Z,0.03
2018-11-29T08:06:01.955Z,-0.03
2018-11-29T08:08:29.383Z,0.01
2018-11-29T08:10:56.881Z,0.05
2018-11-29T08:13:24.320Z,0.21
2018-11-29T08:15:51.691Z,0.24
2018-11-29T08:18:19.260Z,0.32
2018-11-29T08:20:46.660Z,0.35
2018-11-29T08:23:14.078Z,0.47
2018-11-29T08:25:41.521Z,0.54
2018-11-29T08:28:09.013Z,0.65
2018-11-29T08:30:36.419Z,0.81
2018-11-29T08:33:03.990Z,0.91
2018-11-29T08:35:31.414Z,1.18
2018-11-29T08:37:58.866Z,1.26
2018-11-29T08:40:26.244Z,1.36
2018-11-29T08:42:53.702Z,1.40
2018-11-29T08:45:21.120Z,1.44
2018-11-29T08:47:48.546Z,1.53
2018-11-29T08:50:16.001Z,1.58
2018-11-29T08:52:45.172Z,1.77
2018-11-29T08:55:13.771Z,1.89
2018-11-29T08:57:41.201Z,1.87
2018-11-29T09:00:13.563Z,1.93
2018-11-29T09:02:41.015Z,2.00
2018-11-29T09:05:09.567Z,2.03
2018-11-29T09:07:36.954Z,2.19
2018-11-29T09:10:06.196Z,2.28
2018-11-29T09:12:33.585Z,2.45
2018-11-29T09:15:01.021Z,2.58
2018-11-29T09:17:28.397Z,2.68
2018-11-29T09:19:55.837Z,2.78
2018-11-29T09:22:23.265Z,2.86
2018-11-29T09:24:50.680Z,3.00
2018-11-29T09:27:18.084Z,3.14
2018-11-29T09:29:45.485Z,3.22
2018-11-29T09:32:12.899Z,3.48
2018-11-29T09:34:40.327Z,3.59
2018-11-29T09:37:07.719Z,3.63
2018-11-29T09:39:35.127Z,3.73
2018-11-29T09:42:03.063Z,4.06
2018-11-29T09:44:29.978Z,4.25
2018-11-29T09:46:57.362Z,4.23
2018-11-29T09:49:24.826Z,4.28
2018-11-29T09:51:52.232Z,4.23
2018-11-29T09:54:19.663Z,4.33
2018-11-29T09:56:47.077Z,4.36
2018-11-29T09:59:14.533Z,4.36
2018-11-29T10:01:41.945Z,4.59
2018-11-29T10:04:09.336Z,4.71
2018-11-29T10:06:36.792Z,4.82
2018-11-29T10:09:07.022Z,4.93
2018-11-29T10:11:34.472Z,5.05
2018-11-29T10:14:01.934Z,5.31
2018-11-29T10:16:29.290Z,5.38
2018-11-29T10:18:56.700Z,5.46
2018-11-29T10:21:24.080Z,5.58
2018-11-29T10:23:51.492Z,5.81
2018-11-29T10:26:18.876Z,5.93
2018-11-29T10:28:46.279Z,5.88
2018-11-29T10:31:13.717Z,6.26
2018-11-29T10:33:41.239Z,6.49
2018-11-29T10:36:08.660Z,6.45
2018-11-29T10:38:36.059Z,6.58
2018-11-29T10:41:03.526Z,6.63
2018-11-29T10:43:30.971Z,6.49
2018-11-29T10:45:58.396Z,6.49
2018-11-29T10:48:25.806Z,6.52
2018-11-29T10:50:53.198Z,6.69
2018-11-29T10:53:20.654Z,6.57
2018-11-29T10:55:48.089Z,6.53
2018-11-29T10:58:15.477Z,6.53
2018-11-29T11:00:48.561Z,6.46
2018-11-29T11:03:20.765Z,6.51
2018-11-29T11:05:50.380Z,6.64
2018-11-29T11:08:17.786Z,6.78
2018-11-29T11:10:45.231Z,6.73
2018-11-29T11:13:12.678Z,6.72
2018-11-29T11:15:40.066Z,6.70
2018-11-29T11:18:08.763Z,6.73
2018-11-29T11:20:36.245Z,6.81
2018-11-29T11:23:03.832Z,6.85
2018-11-29T11:25:31.311Z,6.75
2018-11-29T11:28:00.081Z,6.75
2018-11-29T11:30:27.555Z,6.68
2018-11-29T11:32:54.991Z,6.62
2018-11-29T11:35:22.456Z,6.77
2018-11-29T11:37:49.851Z,6.74
2018-11-29T11:40:17.386Z,6.70
2018-11-29T11:42:45.612Z,6.65
2018-11-29T11:45:15.140Z,6.70
2018-11-29T11:47:42.613Z,6.65
2018-11-29T11:50:14.977Z,6.61
2018-11-29T11:52:42.395Z,6.51
2018-11-29T11:55:10.432Z,6.51
2018-11-29T11:57:37.996Z,6.54
2018-11-29T12:00:13.691Z,6.71
2018-11-29T12:02:41.304Z,6.77
2018-11-29T12:05:09.507Z,6.65
2018-11-29T12:07:36.932Z,6.53
2018-11-29T12:10:05.262Z,6.68
2018-11-29T12:12:32.660Z,6.60
2018-11-29T12:15:00.090Z,6.45
2018-11-29T12:17:27.504Z,6.31
2018-11-29T12:19:54.914Z,6.41
2018-11-29T12:22:22.334Z,6.33
2018-11-29T12:24:49.904Z,6.29
2018-11-29T12:27:17.329Z,6.39
2018-11-29T12:29:44.788Z,6.25
2018-11-29T12:32:12.181Z,6.27
2018-11-29T12:34:39.542Z,6.21
2018-11-29T12:37:07.024Z,6.24
2018-11-29T12:39:34.432Z,6.15
2018-11-29T12:42:01.927Z,6.07
2018-11-29T12:44:29.372Z,5.98
2018-11-29T12:46:56.842Z,5.90
2018-11-29T12:49:24.251Z,5.81
2018-11-29T12:51:51.671Z,5.73
2018-11-29T12:54:19.049Z,5.66
2018-11-29T12:56:46.468Z,5.58
2018-11-29T12:59:13.868Z,5.51
2018-11-29T13:01:41.306Z,5.43
2018-11-29T13:04:08.758Z,5.41
2018-11-29T13:06:36.191Z,5.35
2018-11-29T13:09:07.708Z,5.34
2018-11-29T13:11:35.177Z,5.38
2018-11-29T13:14:02.761Z,5.36
2018-11-29T13:16:30.158Z,5.42
2018-11-29T13:18:57.649Z,5.43
2018-11-29T13:21:24.997Z,5.35
2018-11-29T13:23:52.574Z,5.30
2018-11-29T13:26:20.096Z,5.24
2018-11-29T13:28:47.596Z,5.16
2018-11-29T13:31:15.013Z,5.18
2018-11-29T13:33:42.467Z,5.13
2018-11-29T13:36:09.933Z,5.06
2018-11-29T13:38:37.347Z,5.01
2018-11-29T13:41:04.785Z,4.91
2018-11-29T13:43:32.237Z,4.91
2018-11-29T13:45:59.652Z,4.84
2018-11-29T13:48:27.111Z,4.69
2018-11-29T13:50:54.496Z,4.68
2018-11-29T13:53:21.929Z,4.56
2018-11-29T13:55:49.333Z,4.44
2018-11-29T13:58:16.732Z,4.32
2018-11-29T14:00:44.191Z,4.21
2018-11-29T14:03:12.900Z,4.15
2018-11-29T14:05:40.369Z,3.99
2018-11-29T14:08:08.717Z,3.87
2018-11-29T14:10:36.621Z,3.79
2018-11-29T14:13:05.118Z,3.72
2018-11-29T14:15:32.559Z,3.64
2018-11-29T14:17:59.991Z,3.61
2018-11-29T14:20:27.482Z,3.58
2018-11-29T14:22:54.889Z,3.50
2018-11-29T14:25:22.317Z,3.46
2018-11-29T14:27:51.088Z,3.39
2018-11-29T14:30:20.482Z,3.44
2018-11-29T14:32:48.067Z,3.41
2018-11-29T14:35:15.472Z,3.49
2018-11-29T14:37:42.961Z,3.44
2018-11-29T14:40:14.402Z,3.33
2018-11-29T14:42:41.909Z,3.33
2018-11-29T14:45:14.391Z,3.25
2018-11-29T14:47:41.853Z,3.14
2018-11-29T14:50:14.916Z,3.14
2018-11-29T14:52:42.373Z,3.15
2018-11-29T14:55:10.308Z,3.03
2018-11-29T14:57:37.959Z,3.00
2018-11-29T15:00:07.930Z,3.04
2018-11-29T15:02:35.386Z,3.01
2018-11-29T15:05:07.700Z,3.07
2018-11-29T15:07:30.396Z,3.14
2018-11-29T15:09:57.862Z,3.07
2018-11-29T15:12:25.278Z,3.10
2018-11-29T15:14:52.747Z,3.14
2018-11-29T15:17:20.166Z,3.12
2018-11-29T15:19:47.594Z,3.19
2018-11-29T15:22:15.018Z,3.17
2018-11-29T15:24:42.455Z,3.14
2018-11-29T15:27:09.903Z,3.11
2018-11-29T15:29:37.266Z,3.08
2018-11-29T15:32:05.043Z,3.00
2018-11-29T15:34:32.422Z,2.96
2018-11-29T15:36:59.877Z,2.85
2018-11-29T15:39:27.334Z,2.78
2018-11-29T15:41:54.771Z,2.71
2018-11-29T15:44:22.206Z,2.65
2018-11-29T15:46:49.623Z,2.73
2018-11-29T15:49:17.014Z,2.75
2018-11-29T15:51:44.431Z,2.81
2018-11-29T15:54:11.859Z,2.88
2018-11-29T15:56:39.329Z,2.81
2018-11-29T15:59:06.788Z,2.81
2018-11-29T16:01:34.228Z,2.80
2018-11-29T16:04:01.691Z,2.70
2018-11-29T16:06:29.134Z,2.65
2018-11-29T16:08:56.525Z,2.66
2018-11-29T16:11:23.974Z,2.64
2018-11-29T16:13:51.424Z,2.56
2018-11-29T16:16:18.813Z,2.55
2018-11-29T16:18:46.270Z,2.44
2018-11-29T16:21:13.752Z,2.35
2018-11-29T16:23:41.341Z,2.29
2018-11-29T16:26:08.785Z,2.24
2018-11-29T16:28:36.216Z,2.14
2018-11-29T16:31:04.172Z,2.04
2018-11-29T16:33:33.263Z,1.88
2018-11-29T16:36:00.819Z,1.84
2018-11-29T16:38:28.252Z,1.82
2018-11-29T16:40:55.680Z,1.79
2018-11-29T16:43:23.118Z,1.76
2018-11-29T16:45:50.598Z,1.78
2018-11-29T16:48:18.052Z,1.75
2018-11-29T16:50:45.510Z,1.73
2018-11-29T16:53:12.959Z,1.63
2018-11-29T16:55:40.415Z,1.66
2018-11-29T16:58:14.069Z,1.65
2018-11-29T17:00:41.558Z,1.62
2018-11-29T17:03:09.056Z,1.56
2018-11-29T17:05:36.555Z,1.54
2018-11-29T17:08:04.047Z,1.50
2018-11-29T17:10:31.507Z,1.47
2018-11-29T17:13:01.529Z,1.44
2018-11-29T17:15:29.083Z,1.44
2018-11-29T17:17:56.507Z,1.43
2018-11-29T17:20:24.005Z,1.40
2018-11-29T17:22:51.737Z,1.48
2018-11-29T17:25:19.292Z,1.59
2018-11-29T17:27:46.748Z,1.49
2018-11-29T17:30:19.069Z,1.56
2018-11-29T17:32:46.855Z,1.54
2018-11-29T17:35:14.431Z,1.49
2018-11-29T17:37:41.950Z,1.43
2018-11-29T17:40:17.018Z,1.38
2018-11-29T17:42:44.512Z,1.34
2018-11-29T17:45:14.386Z,1.31
2018-11-29T17:47:42.597Z,1.29
2018-11-29T17:50:47.217Z,1.26
2018-11-29T17:53:14.707Z,1.25
2018-11-29T17:55:42.214Z,1.24
2018-11-29T17:58:13.758Z,1.26
2018-11-29T18:00:42.304Z,1.22
2018-11-29T18:03:09.895Z,1.27
2018-11-29T18:05:37.426Z,1.29
2018-11-29T18:08:04.957Z,1.20
2018-11-29T18:10:34.182Z,1.12
2018-11-29T18:13:20.464Z,1.11
2018-11-29T18:15:47.908Z,1.16
2018-11-29T18:18:15.415Z,1.13
2018-11-29T18:20:42.892Z,1.09
2018-11-29T18:23:10.532Z,1.01
2018-11-29T18:25:37.957Z,1.02
2018-11-29T18:28:06.315Z,0.98
2018-11-29T18:30:33.793Z,1.04
2018-11-29T18:33:01.233Z,1.04
2018-11-29T18:35:28.667Z,0.99
2018-11-29T18:37:56.158Z,0.96
2018-11-29T18:40:23.594Z,0.85
2018-11-29T18:42:54.318Z,0.83
2018-11-29T18:45:21.738Z,0.79
2018-11-29T18:47:50.367Z,0.77
2018-11-29T18:50:18.742Z,0.70
2018-11-29T18:52:46.247Z,0.69
2018-11-29T18:55:13.709Z,0.67
2018-11-29T18:57:41.159Z,0.64
2018-11-29T19:00:16.958Z,0.58
2018-11-29T19:02:44.418Z,0.51
2018-11-29T19:05:11.977Z,0.49
2018-11-29T19:07:39.423Z,0.57
2018-11-29T19:10:12.419Z,0.52
2018-11-29T19:12:44.349Z,0.45
2018-11-29T19:15:12.507Z,0.40
2018-11-29T19:17:40.054Z,0.42
2018-11-29T19:20:11.966Z,0.41
2018-11-29T19:22:53.341Z,0.45
2018-11-29T19:25:21.368Z,0.49
2018-11-29T19:27:48.835Z,0.53
2018-11-29T19:30:22.529Z,0.48
2018-11-29T19:32:55.301Z,0.44
2018-11-29T19:35:22.865Z,0.44
2018-11-29T19:37:50.235Z,0.49
2018-11-29T19:40:17.809Z,0.46
2018-11-29T19:42:45.205Z,0.52
2018-11-29T19:45:13.935Z,0.54
2018-11-29T19:47:41.369Z,0.61
2018-11-29T19:50:18.358Z,0.61
2018-11-29T19:52:49.065Z,0.73
2018-11-29T19:55:19.134Z,0.84
2018-11-29T19:57:46.604Z,1.00
2018-11-29T20:00:14.373Z,1.10
2018-11-29T20:02:42.800Z,1.19
2018-11-29T20:05:11.089Z,1.26
2018-11-29T20:07:38.600Z,1.36
2018-11-29T20:10:08.375Z,1.40
2018-11-29T20:12:35.784Z,1.46
2018-11-29T20:15:03.288Z,1.52
2018-11-29T20:17:30.742Z,1.62
2018-11-29T20:19:58.149Z,1.70
2018-11-29T20:22:25.724Z,1.69
2018-11-29T20:24:53.172Z,1.66
2018-11-29T20:27:20.647Z,1.57
2018-11-29T20:29:48.562Z,1.57
2018-11-29T20:32:16.047Z,1.50
2018-11-29T20:34:43.539Z,1.49
2018-11-29T20:37:11.044Z,1.47
2018-11-29T20:39:38.543Z,1.42
2018-11-29T20:42:06.020Z,1.40
2018-11-29T20:44:33.504Z,1.44
2018-11-29T20:47:06.042Z,1.42
2018-11-29T20:49:33.685Z,1.43
2018-11-29T20:52:01.154Z,1.39
2018-11-29T20:54:28.679Z,1.38
2018-11-29T20:56:56.168Z,1.35
2018-11-29T20:59:23.634Z,1.40
2018-11-29T21:01:51.207Z,1.35
2018-11-29T21:04:18.655Z,1.36
2018-11-29T21:06:46.162Z,1.38
2018-11-29T21:09:13.679Z,1.39
2018-11-29T21:11:41.419Z,1.33
2018-11-29T21:14:08.877Z,1.36
2018-11-29T21:16:36.581Z,1.32
2018-11-29T21:19:04.395Z,1.23
2018-11-29T21:21:31.839Z,1.21
2018-11-29T21:23:59.474Z,1.20
2018-11-29T21:26:27.080Z,1.23
2018-11-29T21:28:54.914Z,1.24
2018-11-29T21:31:22.712Z,1.26
2018-11-29T21:33:50.131Z,1.26
2018-11-29T21:36:17.619Z,1.27
2018-11-29T21:38:46.005Z,1.26
2018-11-29T21:41:13.725Z,1.34
2018-11-29T21:43:41.187Z,1.42
2018-11-29T21:46:08.641Z,1.28
2018-11-29T21:48:36.194Z,1.28
2018-11-29T21:51:03.670Z,1.24
2018-11-29T21:53:31.125Z,1.16
2018-11-29T21:55:58.600Z,1.15
2018-11-29T21:58:26.143Z,1.11
2018-11-29T22:00:53.849Z,1.12
2018-11-29T22:03:21.373Z,1.11
2018-11-29T22:05:48.928Z,1.09
2018-11-29T22:08:16.349Z,1.11
2018-11-29T22:10:43.744Z,1.09
2018-11-29T22:13:11.266Z,1.05
2018-11-29T22:15:38.695Z,1.16
2018-11-29T22:18:24.306Z,1.12
2018-11-29T22:20:56.879Z,1.15
2018-11-29T22:23:24.377Z,1.13
2018-11-29T22:25:52.384Z,1.19
2018-11-29T22:28:19.813Z,1.23
2018-11-29T22:30:47.275Z,1.28
2018-11-29T22:33:14.754Z,1.25
2018-11-29T22:35:42.138Z,1.20
2018-11-29T22:38:09.589Z,1.09
2018-11-29T22:40:37.015Z,1.15
2018-11-29T22:43:04.502Z,1.27
2018-11-29T22:45:31.946Z,1.38
2018-11-29T22:47:59.357Z,1.33
2018-11-29T22:50:26.821Z,1.30
2018-11-29T22:52:54.217Z,1.23
2018-11-29T22:55:21.713Z,1.19
2018-11-29T22:57:49.167Z,1.18
2018-11-29T23:00:19.501Z,1.15
2018-11-29T23:02:47.904Z,1.09
2018-11-29T23:05:15.356Z,1.05
2018-11-29T23:07:42.778Z,0.99
2018-11-29T23:10:11.103Z,0.99
2018-11-29T23:12:38.480Z,0.98
2018-11-29T23:15:08.853Z,1.00
2018-11-29T23:17:36.273Z,1.00
2018-11-29T23:20:10.012Z,0.99
2018-11-29T23:22:37.748Z,0.94
2018-11-29T23:25:06.891Z,0.95
2018-11-29T23:27:34.305Z,0.99
2018-11-29T23:30:01.709Z,0.89
2018-11-29T23:32:29.180Z,0.94
2018-11-29T23:34:56.614Z,1.00
2018-11-29T23:37:24.029Z,0.99
2018-11-29T23:39:51.408Z,0.92
2018-11-29T23:42:26.247Z,0.85
2018-11-29T23:44:53.643Z,0.82
2018-11-29T23:47:21.090Z,0.71
2018-11-29T23:49:48.504Z,0.67
2018-11-29T23:52:15.961Z,0.74
2018-11-29T23:54:43.311Z,0.74
2018-11-29T23:57:10.745Z,0.79
2018-11-29T23:59:38.177Z,0.77
